Time;durP1;ratioP1;P1;durP2;ratioP2;P2;SDS_P1;SDS_P2;PMS_P1;PMS_P2;Temp;Humidity;BMP_temperature;BMP_pressure;BME280_temperature;BME280_humidity;BME280_pressure;Samples;Min_cycle;Max_cycle;Signal;HPM_P1;HPM_P2
2021/04/21 00:00:40;;;;;;;;;;;;;;;11.55;54.88;101629.47;4985795;28;19933;-72
2021/04/21 00:03:06;;;;;;;;;;;;;;;11.55;55.14;101630.31;4981494;28;19936;-72
2021/04/21 00:05:33;;;;;;;;;;;;;;;11.50;54.95;101627.25;4979145;28;20539;-72
2021/04/21 00:08:00;;;;;;;;;;;;;;;11.49;56.03;101628.22;4980662;28;19928;-72
2021/04/21 00:10:26;;;;;;;;;;;;;;;11.44;56.28;101622.50;4985399;28;19985;-72
2021/04/21 00:12:54;;;;;;;;;;;;;;;11.39;56.85;101622.09;4969983;28;19921;-71
2021/04/21 00:15:22;;;;;;;;;;;;;;;11.31;55.69;101624.53;4981088;28;19926;-71
2021/04/21 00:17:49;;;;;;;;;;;;;;;11.24;55.81;101627.69;4986248;28;20785;-72
2021/04/21 00:20:16;;;;;;;;;;;;;;;11.20;57.02;101621.03;4975990;28;19933;-71
2021/04/21 00:22:45;;;;;;;;;;;;;;;11.15;56.75;101619.75;4980944;28;19926;-72
2021/04/21 00:25:12;;;;;;;;;;;;;;;11.10;57.74;101625.41;4964410;28;20321;-72
2021/04/21 00:27:38;;;;;;;;;;;;;;;11.05;57.68;101627.59;4985694;28;19951;-72
2021/04/21 00:30:06;;;;;;;;;;;;;;;11.01;57.17;101623.56;4986866;28;20735;-72
2021/04/21 00:32:34;;;;;;;;;;;;;;;10.96;57.24;101633.63;4958688;28;20388;-72
2021/04/21 00:35:00;;;;;;;;;;;;;;;10.93;57.40;101629.44;4982588;28;19930;-72
2021/04/21 00:37:29;;;;;;;;;;;;;;;10.91;57.21;101622.66;4981172;28;20305;-72
2021/04/21 00:39:56;;;;;;;;;;;;;;;10.88;57.68;101629.84;4981568;28;19922;-72
2021/04/21 00:42:25;;;;;;;;;;;;;;;10.86;57.38;101629.16;4979410;28;19976;-72
2021/04/21 00:44:59;;;;;;;;;;;;;;;10.80;57.45;101634.06;4986012;28;20361;-72
2021/04/21 00:47:33;;;;;;;;;;;;;;;10.77;57.44;101632.53;4981499;28;19926;-72
2021/04/21 00:50:06;;;;;;;;;;;;;;;10.70;58.15;101633.97;4969609;28;20353;-72
2021/04/21 00:52:51;;;;;;;;;;;;;;;10.64;57.92;101634.50;4989164;28;20333;-72
2021/04/21 00:55:23;;;;;;;;;;;;;;;10.53;58.83;101637.19;4985533;28;19922;-72
2021/04/21 00:57:52;;;;;;;;;;;;;;;10.46;58.86;101631.59;4989476;28;19944;-72
2021/04/21 01:00:20;;;;;;;;;;;;;;;10.45;58.26;101637.81;4965395;28;19992;-72
2021/04/21 01:02:52;;;;;;;;;;;;;;;10.37;58.26;101633.19;4969566;28;20023;-72
2021/04/21 01:05:22;;;;;;;;;;;;;;;10.32;59.30;101631.91;4986683;28;19926;-72
2021/04/21 01:07:50;;;;;;;;;;;;;;;10.29;59.35;101632.97;4990180;28;20941;-72
2021/04/21 01:10:17;;;;;;;;;;;;;;;10.24;59.43;101627.25;4992528;28;19926;-71
2021/04/21 01:12:46;;;;;;;;;;;;;;;10.22;59.65;101626.53;4982128;28;19929;-72
2021/04/21 01:15:14;;;;;;;;;;;;;;;10.15;59.58;101630.59;4985656;28;20301;-72
2021/04/21 01:17:40;;;;;;;;;;;;;;;10.09;59.54;101632.78;4981942;28;19992;-72
2021/04/21 01:20:16;;;;;;;;;;;;;;;10.00;59.83;101637.94;4988668;28;19922;-72
2021/04/21 01:22:48;;;;;;;;;;;;;;;9.94;60.56;101643.63;4980990;28;19926;-72
2021/04/21 01:25:15;;;;;;;;;;;;;;;9.90;60.58;101643.91;4989222;28;19925;-72
2021/04/21 01:27:47;;;;;;;;;;;;;;;9.84;60.60;101636.53;4986583;28;20368;-72
2021/04/21 01:30:14;;;;;;;;;;;;;;;9.80;60.60;101632.47;4984701;28;21541;-72
2021/04/21 01:32:43;;;;;;;;;;;;;;;9.73;61.59;101635.72;4986136;28;19925;-72
2021/04/21 01:35:10;;;;;;;;;;;;;;;9.73;60.52;101633.09;4954785;28;19926;-72
2021/04/21 01:37:36;;;;;;;;;;;;;;;9.69;61.71;101629.88;4988827;28;19995;-72
2021/04/21 01:40:15;;;;;;;;;;;;;;;9.68;61.42;101634.28;4983052;28;19961;-72
2021/04/21 01:42:43;;;;;;;;;;;;;;;9.67;61.44;101637.03;4980951;28;19926;-72
2021/04/21 01:45:11;;;;;;;;;;;;;;;9.60;61.72;101639.28;4972987;28;20025;-74
2021/04/21 01:47:37;;;;;;;;;;;;;;;9.58;61.84;101641.19;4987839;28;20313;-72
2021/04/21 01:50:07;;;;;;;;;;;;;;;9.56;61.47;101637.03;4968455;28;19922;-72
2021/04/21 01:52:42;;;;;;;;;;;;;;;9.57;61.56;101641.31;4983061;28;19925;-72
2021/04/21 01:55:14;;;;;;;;;;;;;;;9.54;61.00;101631.91;4988900;28;19929;-72
2021/04/21 01:57:50;;;;;;;;;;;;;;;9.50;61.35;101639.16;4965314;28;20377;-72
2021/04/21 02:00:31;;;;;;;;;;;;;;;9.46;61.30;101632.50;4987693;28;19972;-72
2021/04/21 02:03:12;;;;;;;;;;;;;;;9.40;62.01;101640.00;4984150;28;19922;-72
2021/04/21 02:05:45;;;;;;;;;;;;;;;9.43;61.42;101629.31;4983836;28;19922;-72
2021/04/21 02:08:11;;;;;;;;;;;;;;;9.42;61.47;101636.31;4957726;28;19960;-72
2021/04/21 02:11:06;;;;;;;;;;;;;;;9.35;61.76;101634.28;4987498;28;20008;-72
2021/04/21 02:13:40;;;;;;;;;;;;;;;9.28;62.97;101632.13;4973435;28;20270;-72
2021/04/21 02:16:21;;;;;;;;;;;;;;;9.26;62.22;101631.41;4972573;28;19930;-72
2021/04/21 02:19:06;;;;;;;;;;;;;;;9.23;62.50;101631.66;4977750;28;19930;-71
2021/04/21 02:21:32;;;;;;;;;;;;;;;9.18;62.11;101628.56;4983603;28;20423;-72
2021/04/21 02:24:02;;;;;;;;;;;;;;;9.13;62.49;101632.47;4988014;28;19925;-71
2021/04/21 02:26:39;;;;;;;;;;;;;;;9.06;63.10;101634.75;4982904;28;19926;-72
2021/04/21 02:29:09;;;;;;;;;;;;;;;9.05;63.08;101636.50;4988045;28;19996;-71
2021/04/21 02:31:37;;;;;;;;;;;;;;;9.01;63.89;101631.63;4983704;28;19925;-72
2021/04/21 02:34:23;;;;;;;;;;;;;;;9.05;62.38;101640.91;4983530;28;20239;-72
2021/04/21 02:36:52;;;;;;;;;;;;;;;8.98;62.63;101635.31;4977937;28;19926;-72
2021/04/21 02:39:18;;;;;;;;;;;;;;;8.90;63.30;101641.13;4971656;28;19929;-72
2021/04/21 02:41:55;;;;;;;;;;;;;;;8.88;63.28;101637.78;4971350;28;19925;-72
2021/04/21 02:44:43;;;;;;;;;;;;;;;8.86;64.21;101642.31;4986544;28;19968;-73
2021/04/21 02:47:15;;;;;;;;;;;;;;;8.87;63.87;101638.72;4985103;28;19929;-72
2021/04/21 02:49:54;;;;;;;;;;;;;;;8.92;63.82;101641.03;4976597;28;19969;-73
2021/04/21 02:52:39;;;;;;;;;;;;;;;8.95;63.61;101642.56;4987179;28;19922;-73
2021/04/21 02:55:05;;;;;;;;;;;;;;;8.96;63.68;101637.22;4966341;28;20554;-72
2021/04/21 02:57:34;;;;;;;;;;;;;;;8.98;64.04;101631.88;4971223;28;19928;-72
2021/04/21 03:00:06;;;;;;;;;;;;;;;9.03;63.83;101637.56;4980218;28;19926;-72
2021/04/21 03:02:37;;;;;;;;;;;;;;;9.02;63.74;101633.31;4981978;28;19972;-72
2021/04/21 03:05:07;;;;;;;;;;;;;;;8.97;64.05;101641.50;4979703;28;19932;-73
2021/04/21 03:07:44;;;;;;;;;;;;;;;8.95;64.40;101646.00;4969057;28;19928;-73
2021/04/21 03:10:13;;;;;;;;;;;;;;;8.93;64.98;101642.66;4990144;28;20259;-73
2021/04/21 03:12:42;;;;;;;;;;;;;;;8.90;64.79;101635.91;4981194;28;20022;-73
2021/04/21 03:15:09;;;;;;;;;;;;;;;8.92;64.66;101638.41;4983959;28;20104;-72
2021/04/21 03:17:35;;;;;;;;;;;;;;;8.95;65.18;101646.00;4961458;28;19932;-72
2021/04/21 03:20:13;;;;;;;;;;;;;;;8.96;65.09;101636.34;4971310;28;20341;-72
2021/04/21 03:22:43;;;;;;;;;;;;;;;9.00;64.98;101648.28;4978174;28;19929;-72
2021/04/21 03:25:11;;;;;;;;;;;;;;;9.06;64.59;101634.75;4988785;28;19926;-72
2021/04/21 03:27:39;;;;;;;;;;;;;;;9.08;64.81;101633.66;4981864;28;19961;-72
2021/04/21 03:30:07;;;;;;;;;;;;;;;9.14;64.52;101631.53;4980694;28;19930;-72
2021/04/21 03:32:36;;;;;;;;;;;;;;;9.16;65.20;101632.25;4983605;28;19929;-72
2021/04/21 03:35:03;;;;;;;;;;;;;;;9.17;65.13;101634.72;4982538;28;19979;-72
2021/04/21 03:37:48;;;;;;;;;;;;;;;9.22;65.02;101635.22;4986460;28;19965;-72
2021/04/21 03:40:14;;;;;;;;;;;;;;;9.25;64.79;101634.16;4964829;28;19961;-72
2021/04/21 03:42:41;;;;;;;;;;;;;;;9.26;64.89;101626.19;4966416;28;19988;-72
2021/04/21 03:45:07;;;;;;;;;;;;;;;9.27;65.19;101632.25;4977189;28;19926;-72
2021/04/21 03:47:36;;;;;;;;;;;;;;;9.30;65.37;101632.84;4980015;28;19933;-72
2021/04/21 03:50:03;;;;;;;;;;;;;;;9.36;64.67;101638.56;4980899;28;20365;-72
2021/04/21 03:52:32;;;;;;;;;;;;;;;9.38;64.51;101629.63;4978474;28;19925;-72
2021/04/21 03:54:58;;;;;;;;;;;;;;;9.36;65.16;101622.88;4967952;28;19938;-72
2021/04/21 03:57:27;;;;;;;;;;;;;;;9.33;65.61;101631.78;4976804;28;19959;-72
2021/04/21 03:59:53;;;;;;;;;;;;;;;9.31;65.69;101625.84;4971213;28;19976;-72
2021/04/21 04:02:21;;;;;;;;;;;;;;;9.30;65.85;101632.03;4980320;28;19977;-72
2021/04/21 04:04:51;;;;;;;;;;;;;;;9.26;66.06;101627.97;4987723;28;19922;-72
2021/04/21 04:07:19;;;;;;;;;;;;;;;9.25;66.19;101635.00;4982125;28;19949;-72
2021/04/21 04:09:46;;;;;;;;;;;;;;;9.27;65.73;101629.63;4976008;28;19925;-72
2021/04/21 04:12:13;;;;;;;;;;;;;;;9.27;66.23;101635.72;4981456;28;19928;-72
2021/04/21 04:14:40;;;;;;;;;;;;;;;9.28;66.09;101623.44;4978989;28;20501;-72
2021/04/21 04:17:06;;;;;;;;;;;;;;;9.35;65.53;101629.03;4984342;28;19926;-72
2021/04/21 04:19:35;;;;;;;;;;;;;;;9.35;65.95;101629.03;4980412;28;19980;-72
2021/04/21 04:22:08;;;;;;;;;;;;;;;9.33;66.17;101633.56;4990656;28;19973;-72
2021/04/21 04:24:37;;;;;;;;;;;;;;;9.35;65.22;101629.91;4968356;28;19972;-71
2021/04/21 04:27:05;;;;;;;;;;;;;;;9.37;64.84;101637.59;4973714;28;19976;-72
2021/04/21 04:29:32;;;;;;;;;;;;;;;9.35;64.86;101631.66;4990241;28;20266;-72
2021/04/21 04:32:01;;;;;;;;;;;;;;;9.33;65.44;101642.28;4986322;28;19922;-72
2021/04/21 04:34:28;;;;;;;;;;;;;;;9.36;64.99;101642.00;4989954;28;20000;-71
2021/04/21 04:36:54;;;;;;;;;;;;;;;9.36;64.45;101638.56;4987360;28;19933;-72
2021/04/21 04:39:21;;;;;;;;;;;;;;;9.36;64.61;101643.81;4988040;28;19925;-72
2021/04/21 04:41:47;;;;;;;;;;;;;;;9.36;65.15;101647.25;4979257;28;19944;-72
2021/04/21 04:44:14;;;;;;;;;;;;;;;9.37;64.78;101651.56;4971986;28;20012;-72
2021/04/21 04:46:44;;;;;;;;;;;;;;;9.38;64.27;101649.75;4987418;28;19987;-72
2021/04/21 04:49:12;;;;;;;;;;;;;;;9.38;64.33;101655.81;4983838;28;20367;-72
2021/04/21 04:51:41;;;;;;;;;;;;;;;9.42;63.88;101659.03;4990366;28;19922;-72
2021/04/21 04:54:09;;;;;;;;;;;;;;;9.42;63.88;101659.88;4964430;28;19952;-72
2021/04/21 04:56:35;;;;;;;;;;;;;;;9.41;63.94;101657.34;4985104;28;19921;-71
2021/04/21 04:59:03;;;;;;;;;;;;;;;9.33;64.41;101657.97;4985139;28;20425;-72
2021/04/21 05:01:38;;;;;;;;;;;;;;;9.30;63.97;101664.25;4981639;28;20537;-71
2021/04/21 05:04:04;;;;;;;;;;;;;;;9.26;64.31;101664.63;4983766;28;19961;-72
2021/04/21 05:06:34;;;;;;;;;;;;;;;9.21;64.55;101662.38;4975977;28;20035;-72
2021/04/21 05:09:02;;;;;;;;;;;;;;;9.17;64.36;101660.91;4980778;28;19925;-72
2021/04/21 05:11:29;;;;;;;;;;;;;;;9.16;64.85;101661.06;4977455;28;19933;-72
2021/04/21 05:13:56;;;;;;;;;;;;;;;9.13;64.37;101663.88;4988981;28;20309;-72
2021/04/21 05:16:28;;;;;;;;;;;;;;;9.11;64.58;101664.00;4982244;28;19925;-72
2021/04/21 05:19:09;;;;;;;;;;;;;;;9.08;64.84;101674.72;4986323;28;19996;-72
2021/04/21 05:21:53;;;;;;;;;;;;;;;9.05;64.88;101678.38;4975820;28;19932;-71
2021/04/21 05:24:22;;;;;;;;;;;;;;;9.06;64.69;101676.63;4978274;28;19945;-71
2021/04/21 05:27:07;;;;;;;;;;;;;;;9.05;64.59;101685.41;4982811;28;20328;-71
2021/04/21 05:29:51;;;;;;;;;;;;;;;9.08;64.25;101675.53;4974714;28;19921;-71
2021/04/21 05:32:38;;;;;;;;;;;;;;;9.14;64.09;101681.28;4988218;28;19941;-72
2021/04/21 05:35:10;;;;;;;;;;;;;;;9.18;64.01;101687.94;4978348;28;20549;-71
2021/04/21 05:37:36;;;;;;;;;;;;;;;9.16;64.59;101685.44;4984327;28;19925;-72
2021/04/21 05:40:08;;;;;;;;;;;;;;;9.17;64.89;101689.69;4982452;28;19928;-72
2021/04/21 05:42:57;;;;;;;;;;;;;;;9.20;64.98;101688.66;4989722;28;19996;-72
2021/04/21 05:45:41;;;;;;;;;;;;;;;9.23;65.08;101685.78;4977735;28;20373;-72
2021/04/21 05:48:37;;;;;;;;;;;;;;;9.23;65.35;101688.41;4982548;28;20255;-71
2021/04/21 05:51:13;;;;;;;;;;;;;;;9.24;65.52;101696.16;4949004;28;19937;-72
2021/04/21 05:53:54;;;;;;;;;;;;;;;9.30;65.46;101694.84;4984178;28;19996;-72
2021/04/21 05:56:36;;;;;;;;;;;;;;;9.38;65.20;101689.88;4961057;28;660768;-72
2021/04/21 05:59:14;;;;;;;;;;;;;;;9.46;64.93;101695.34;4989725;28;20005;-72
2021/04/21 06:01:43;;;;;;;;;;;;;;;9.56;65.16;101686.78;4978563;28;19925;-72
2021/04/21 06:04:09;;;;;;;;;;;;;;;9.66;64.63;101700.84;4981407;28;20381;-72
2021/04/21 06:06:35;;;;;;;;;;;;;;;9.79;64.17;101695.47;4989052;28;19925;-72
2021/04/21 06:09:08;;;;;;;;;;;;;;;9.86;63.40;101702.75;4967730;28;19926;-73
2021/04/21 06:11:34;;;;;;;;;;;;;;;9.93;62.65;101700.47;4986587;28;19937;-72
2021/04/21 06:14:02;;;;;;;;;;;;;;;9.97;61.84;101704.50;4963939;28;20017;-72
2021/04/21 06:16:29;;;;;;;;;;;;;;;10.04;61.84;101704.88;4971299;28;19934;-74
2021/04/21 06:18:56;;;;;;;;;;;;;;;10.09;62.03;101694.84;4981594;28;19969;-72
2021/04/21 06:21:24;;;;;;;;;;;;;;;10.16;61.77;101692.59;4986795;28;19925;-72
2021/04/21 06:23:54;;;;;;;;;;;;;;;10.25;61.33;101699.69;4986573;28;19926;-72
2021/04/21 06:26:23;;;;;;;;;;;;;;;10.33;60.77;101697.34;4981649;28;19988;-73
2021/04/21 06:28:58;;;;;;;;;;;;;;;10.40;60.83;101703.75;4985497;28;19929;-73
2021/04/21 06:31:30;;;;;;;;;;;;;;;10.45;59.28;101698.16;4984947;28;20020;-72
2021/04/21 06:33:56;;;;;;;;;;;;;;;10.52;59.16;101706.34;4991046;28;20074;-72
2021/04/21 06:36:22;;;;;;;;;;;;;;;10.57;58.98;101704.19;4985119;28;20032;-72
2021/04/21 06:38:53;;;;;;;;;;;;;;;10.60;58.91;101710.00;4987975;28;19937;-72
2021/04/21 06:41:23;;;;;;;;;;;;;;;10.65;58.46;101709.66;4963433;28;19930;-72
2021/04/21 06:43:49;;;;;;;;;;;;;;;10.69;58.04;101704.00;4970031;28;19933;-72
2021/04/21 06:46:17;;;;;;;;;;;;;;;10.73;57.94;101709.84;4989005;28;20041;-72
2021/04/21 06:48:44;;;;;;;;;;;;;;;10.77;57.68;101707.81;4981590;28;19933;-72
2021/04/21 06:51:14;;;;;;;;;;;;;;;10.81;58.65;101710.03;4990396;28;19952;-72
2021/04/21 06:53:41;;;;;;;;;;;;;;;10.83;57.56;101705.50;4980540;28;19922;-70
2021/04/21 06:56:08;;;;;;;;;;;;;;;10.88;57.32;101713.84;4981211;28;20883;-70
2021/04/21 06:58:35;;;;;;;;;;;;;;;10.95;57.13;101708.91;4980113;28;19933;-70
2021/04/21 07:01:08;;;;;;;;;;;;;;;11.00;56.82;101716.41;4987013;28;19926;-70
2021/04/21 07:03:34;;;;;;;;;;;;;;;11.04;55.90;101712.56;4986372;28;19933;-70
2021/04/21 07:06:00;;;;;;;;;;;;;;;11.08;55.92;101716.59;4967072;28;19992;-70
2021/04/21 07:08:34;;;;;;;;;;;;;;;11.13;54.63;101716.22;4987378;28;19929;-70
2021/04/21 07:11:17;;;;;;;;;;;;;;;11.19;55.56;101720.94;4980968;28;19965;-70
2021/04/21 07:13:47;;;;;;;;;;;;;;;11.24;55.81;101721.41;4990174;28;19952;-70
2021/04/21 07:16:23;;;;;;;;;;;;;;;11.32;55.08;101726.84;4983417;28;19922;-71
2021/04/21 07:18:53;;;;;;;;;;;;;;;11.36;55.73;101728.25;4989873;28;20016;-71
2021/04/21 07:21:20;;;;;;;;;;;;;;;11.38;54.40;101725.50;4981624;28;20274;-71
2021/04/21 07:23:49;;;;;;;;;;;;;;;11.42;54.63;101729.53;4986786;28;19940;-71
2021/04/21 07:26:15;;;;;;;;;;;;;;;11.45;54.38;101721.41;4973743;28;19925;-71
2021/04/21 07:28:41;;;;;;;;;;;;;;;11.46;54.72;101734.38;4983995;28;19921;-72
2021/04/21 07:31:14;;;;;;;;;;;;;;;11.47;55.31;101728.19;4973596;28;19922;-71
2021/04/21 07:33:43;;;;;;;;;;;;;;;11.55;55.57;101738.03;4980773;28;19926;-71
2021/04/21 07:36:12;;;;;;;;;;;;;;;11.60;54.97;101733.25;4972168;28;19925;-71
2021/04/21 07:38:45;;;;;;;;;;;;;;;11.64;55.87;101739.03;4978388;28;20000;-71
2021/04/21 07:41:14;;;;;;;;;;;;;;;11.66;55.52;101743.22;4988114;28;20413;-71
2021/04/21 07:43:45;;;;;;;;;;;;;;;11.65;55.44;101738.91;4967165;28;20551;-72
2021/04/21 07:46:13;;;;;;;;;;;;;;;11.66;54.94;101747.63;4989393;28;20372;-71
2021/04/21 07:48:41;;;;;;;;;;;;;;;11.70;54.88;101746.41;4986027;28;19996;-70
2021/04/21 07:51:15;;;;;;;;;;;;;;;11.74;55.18;101752.22;4978938;28;19933;-71
2021/04/21 07:53:50;;;;;;;;;;;;;;;11.75;54.51;101741.59;4983310;28;20419;-71
2021/04/21 07:56:17;;;;;;;;;;;;;;;11.79;54.74;101750.03;4968599;28;20361;-71
2021/04/21 07:58:44;;;;;;;;;;;;;;;11.85;54.18;101745.09;4986177;28;19929;-71
2021/04/21 08:01:11;;;;;;;;;;;;;;;11.88;54.17;101744.84;4982492;28;19929;-72
2021/04/21 08:03:38;;;;;;;;;;;;;;;11.96;54.75;101754.72;4983181;28;20343;-71
2021/04/21 08:06:05;;;;;;;;;;;;;;;12.05;53.59;101751.31;4974092;28;19925;-71
2021/04/21 08:08:32;;;;;;;;;;;;;;;12.25;53.92;101751.34;4980484;28;19928;-71
2021/04/21 08:10:59;;;;;;;;;;;;;;;12.41;53.82;101748.22;4986433;28;20348;-72
2021/04/21 08:13:38;;;;;;;;;;;;;;;12.62;54.03;101746.31;4966115;28;19926;-72
2021/04/21 08:16:18;;;;;;;;;;;;;;;12.96;52.67;101758.22;4972389;28;19984;-72
2021/04/21 08:18:44;;;;;;;;;;;;;;;13.28;52.08;101755.28;4977005;28;19921;-72
2021/04/21 08:21:10;;;;;;;;;;;;;;;13.56;52.09;101753.56;4988187;28;20008;-72
2021/04/21 08:23:37;;;;;;;;;;;;;;;13.74;50.86;101755.47;4979488;28;19932;-72
2021/04/21 08:26:03;;;;;;;;;;;;;;;13.99;50.74;101759.25;4969940;28;19930;-72
2021/04/21 08:28:29;;;;;;;;;;;;;;;14.20;50.72;101759.84;4988935;28;20340;-71
2021/04/21 08:30:57;;;;;;;;;;;;;;;14.43;49.50;101762.91;4961735;28;20338;-72
2021/04/21 08:33:23;;;;;;;;;;;;;;;14.67;48.55;101763.34;4972756;28;19926;-72
2021/04/21 08:35:49;;;;;;;;;;;;;;;14.80;48.19;101761.97;4982319;28;19981;-72
2021/04/21 08:38:16;;;;;;;;;;;;;;;14.93;47.59;101771.34;4987472;28;20282;-72
2021/04/21 08:40:42;;;;;;;;;;;;;;;15.06;47.33;101769.13;4980794;28;19930;-72
2021/04/21 08:43:08;;;;;;;;;;;;;;;15.19;46.64;101766.09;4967129;28;20815;-72
2021/04/21 08:45:35;;;;;;;;;;;;;;;15.32;46.85;101769.16;4976989;28;19922;-72
2021/04/21 08:48:03;;;;;;;;;;;;;;;15.36;46.06;101770.50;4981474;28;19922;-72
2021/04/21 08:50:29;;;;;;;;;;;;;;;15.53;46.00;101781.22;4985660;28;19932;-72
2021/04/21 08:52:58;;;;;;;;;;;;;;;15.70;46.94;101768.91;4982086;28;19976;-72
2021/04/21 08:55:27;;;;;;;;;;;;;;;15.80;46.02;101775.78;4987836;28;19961;-72
2021/04/21 08:57:54;;;;;;;;;;;;;;;15.79;45.76;101773.28;4960241;28;19921;-71
2021/04/21 09:00:20;;;;;;;;;;;;;;;15.87;45.53;101772.50;4983876;28;19926;-72
2021/04/21 09:02:47;;;;;;;;;;;;;;;15.85;45.48;101779.75;4985650;28;19957;-72
2021/04/21 09:05:15;;;;;;;;;;;;;;;15.77;44.64;101777.91;4982678;28;19921;-71
2021/04/21 09:07:41;;;;;;;;;;;;;;;15.75;45.38;101783.34;4985800;28;20290;-72
2021/04/21 09:10:08;;;;;;;;;;;;;;;15.80;44.77;101786.34;4985867;28;20380;-72
2021/04/21 09:12:35;;;;;;;;;;;;;;;15.95;44.85;101785.75;4985863;28;19922;-72
2021/04/21 09:15:01;;;;;;;;;;;;;;;16.04;43.53;101782.19;4980814;28;19926;-71
2021/04/21 09:17:29;;;;;;;;;;;;;;;16.06;44.21;101784.66;4991413;28;19984;-71
2021/04/21 09:19:55;;;;;;;;;;;;;;;16.32;43.43;101784.59;4990132;28;20401;-71
2021/04/21 09:22:23;;;;;;;;;;;;;;;16.52;43.44;101791.25;4979609;28;20304;-72
2021/04/21 09:24:57;;;;;;;;;;;;;;;16.61;42.38;101786.81;4986431;28;19925;-72
2021/04/21 09:27:24;;;;;;;;;;;;;;;16.84;41.65;101787.06;4982861;28;19957;-72
2021/04/21 09:30:07;;;;;;;;;;;;;;;17.03;42.08;101793.84;4988451;28;19984;-71
2021/04/21 09:32:42;;;;;;;;;;;;;;;17.04;41.62;101790.22;4983556;28;19973;-71
2021/04/21 09:35:13;;;;;;;;;;;;;;;17.28;41.23;101794.66;4972908;28;20317;-71
2021/04/21 09:37:39;;;;;;;;;;;;;;;17.46;41.16;101802.44;4987190;28;20377;-71
2021/04/21 09:40:05;;;;;;;;;;;;;;;17.76;40.21;101795.59;4973515;28;19960;-71
2021/04/21 09:42:33;;;;;;;;;;;;;;;17.76;38.70;101798.25;4985013;28;20325;-72
2021/04/21 09:44:59;;;;;;;;;;;;;;;17.83;39.22;101794.91;4984933;28;19925;-71
2021/04/21 09:47:25;;;;;;;;;;;;;;;17.74;38.49;101792.28;4985492;28;20337;-71
2021/04/21 09:49:55;;;;;;;;;;;;;;;17.73;38.10;101800.41;4975686;28;19922;-71
2021/04/21 09:52:21;;;;;;;;;;;;;;;17.55;37.20;101796.13;4988227;28;19932;-71
2021/04/21 09:54:48;;;;;;;;;;;;;;;17.56;39.05;101805.75;4968977;28;19965;-71
2021/04/21 09:57:32;;;;;;;;;;;;;;;17.67;38.49;101803.75;4987442;28;19929;-71
2021/04/21 09:59:58;;;;;;;;;;;;;;;17.72;38.11;101798.75;4988241;28;19976;-72
2021/04/21 10:02:35;;;;;;;;;;;;;;;17.92;36.80;101793.94;4982083;28;19975;-71
2021/04/21 10:05:20;;;;;;;;;;;;;;;18.10;37.56;101805.13;4986947;28;19925;-71
2021/04/21 10:07:47;;;;;;;;;;;;;;;18.21;36.33;101803.94;4983618;28;20301;-71
2021/04/21 10:10:25;;;;;;;;;;;;;;;18.38;37.58;101804.66;4986195;28;19952;-71
2021/04/21 10:12:51;;;;;;;;;;;;;;;18.46;37.29;101809.09;4980818;28;19976;-71
2021/04/21 10:15:17;;;;;;;;;;;;;;;18.69;35.93;101802.00;4983582;28;19922;-71
2021/04/21 10:17:44;;;;;;;;;;;;;;;18.82;36.28;101798.78;4976555;28;19928;-71
2021/04/21 10:20:11;;;;;;;;;;;;;;;18.93;35.55;101811.69;4988669;28;19926;-71
2021/04/21 10:22:38;;;;;;;;;;;;;;;19.02;35.26;101795.66;4987053;28;19937;-71
2021/04/21 10:25:05;;;;;;;;;;;;;;;19.22;35.02;101801.31;4982762;28;20499;-71
2021/04/21 10:27:32;;;;;;;;;;;;;;;19.32;35.27;101802.69;4987924;28;20574;-71
2021/04/21 10:30:00;;;;;;;;;;;;;;;19.55;35.17;101807.16;4980553;28;19922;-72
2021/04/21 10:32:26;;;;;;;;;;;;;;;19.72;35.15;101803.34;4984115;28;20686;-71
2021/04/21 10:34:52;;;;;;;;;;;;;;;19.86;34.86;101806.19;4979889;28;19984;-71
2021/04/21 10:37:18;;;;;;;;;;;;;;;19.92;34.09;101805.44;4989004;28;19925;-72
2021/04/21 10:39:51;;;;;;;;;;;;;;;20.02;34.54;101807.84;4988553;28;19926;-71
2021/04/21 10:42:17;;;;;;;;;;;;;;;20.11;35.53;101806.69;4987055;28;19929;-70
2021/04/21 10:44:44;;;;;;;;;;;;;;;20.22;33.85;101803.56;4986197;28;20364;-72
2021/04/21 10:47:14;;;;;;;;;;;;;;;20.31;34.36;101806.97;4980965;28;20393;-71
2021/04/21 10:49:52;;;;;;;;;;;;;;;20.39;34.00;101806.03;4967780;28;19976;-71
2021/04/21 10:52:21;;;;;;;;;;;;;;;20.52;33.78;101798.16;4983020;28;19999;-71
2021/04/21 10:54:48;;;;;;;;;;;;;;;20.66;34.38;101796.50;4989911;28;20000;-71
2021/04/21 10:57:33;;;;;;;;;;;;;;;20.77;34.20;101792.50;4981058;28;20326;-70
2021/04/21 11:00:10;;;;;;;;;;;;;;;20.97;34.05;101795.38;4980854;28;19922;-70
2021/04/21 11:02:45;;;;;;;;;;;;;;;20.98;34.17;101797.84;4988435;28;19929;-70
2021/04/21 11:05:12;;;;;;;;;;;;;;;21.06;33.31;101797.69;4966613;28;19930;-72
2021/04/21 11:07:39;;;;;;;;;;;;;;;21.25;32.90;101790.06;4986592;28;20273;-72
2021/04/21 11:10:06;;;;;;;;;;;;;;;21.38;33.52;101790.16;4980329;28;19956;-70
2021/04/21 11:12:51;;;;;;;;;;;;;;;21.24;33.48;101799.06;4981725;28;19977;-70
2021/04/21 11:15:37;;;;;;;;;;;;;;;21.11;34.48;101802.44;4981056;28;20321;-71
2021/04/21 11:18:12;;;;;;;;;;;;;;;20.91;35.46;101802.28;4988336;28;19922;-70
2021/04/21 11:20:47;;;;;;;;;;;;;;;20.66;36.31;101802.69;4982857;28;19922;-71
2021/04/21 11:23:32;;;;;;;;;;;;;;;20.31;36.66;101806.97;4985963;28;21326;-72
2021/04/21 11:26:16;;;;;;;;;;;;;;;20.01;37.08;101820.31;4978366;28;20539;-71
2021/04/21 11:29:01;;;;;;;;;;;;;;;19.72;37.34;101815.84;4982402;28;19992;-72
2021/04/21 11:31:39;;;;;;;;;;;;;;;19.45;36.44;101811.91;4984170;28;20596;-72
2021/04/21 11:34:24;;;;;;;;;;;;;;;19.91;36.70;101814.44;4986621;28;19943;-73
2021/04/21 11:36:51;;;;;;;;;;;;;;;20.27;36.09;101806.50;4967341;28;19948;-72
2021/04/21 11:39:36;;;;;;;;;;;;;;;20.40;35.37;101813.81;4985280;28;20317;-72
2021/04/21 11:42:14;;;;;;;;;;;;;;;20.50;34.91;101808.19;4985344;28;20369;-72
2021/04/21 11:44:53;;;;;;;;;;;;;;;20.90;34.98;101811.31;4987695;28;20340;-72
2021/04/21 11:47:36;;;;;;;;;;;;;;;20.56;34.54;101804.78;4986929;28;20062;-72
2021/04/21 11:50:02;;;;;;;;;;;;;;;20.33;34.36;101813.75;4966609;28;20525;-72
2021/04/21 11:52:40;;;;;;;;;;;;;;;20.61;34.42;101812.25;4983506;28;20008;-73
2021/04/21 11:55:07;;;;;;;;;;;;;;;20.99;35.68;101812.81;4975980;28;19929;-73
2021/04/21 11:57:38;;;;;;;;;;;;;;;21.04;34.91;101813.06;4984692;28;20033;-73
2021/04/21 12:00:07;;;;;;;;;;;;;;;20.76;34.95;101804.19;4982621;28;19921;-73
2021/04/21 12:02:34;;;;;;;;;;;;;;;20.42;35.36;101811.78;4983124;28;20389;-73
2021/04/21 12:05:00;;;;;;;;;;;;;;;20.14;34.78;101807.16;4987332;28;19926;-73
2021/04/21 12:07:26;;;;;;;;;;;;;;;19.94;34.54;101812.25;4977035;28;20325;-73
2021/04/21 12:09:53;;;;;;;;;;;;;;;19.88;34.62;101807.66;4983381;28;19922;-74
2021/04/21 12:12:22;;;;;;;;;;;;;;;19.86;35.58;101811.53;4981729;28;20389;-74
2021/04/21 12:15:01;;;;;;;;;;;;;;;19.73;35.92;101807.63;4971539;28;19925;-73
2021/04/21 12:17:27;;;;;;;;;;;;;;;19.33;38.78;101807.03;4981460;28;19951;-73
2021/04/21 12:19:54;;;;;;;;;;;;;;;19.14;40.00;101821.63;4986620;28;20441;-73
2021/04/21 12:22:20;;;;;;;;;;;;;;;18.98;41.44;101832.41;4982619;28;20046;-73
2021/04/21 12:24:46;;;;;;;;;;;;;;;18.77;42.73;101846.28;4977964;28;19929;-73
2021/04/21 12:27:28;;;;;;;;;;;;;;;18.47;42.88;101848.78;4988892;28;19922;-73
2021/04/21 12:29:54;;;;;;;;;;;;;;;18.32;43.88;101848.69;4981207;28;19932;-73
2021/04/21 12:32:26;;;;;;;;;;;;;;;18.20;43.88;101851.91;4986136;28;20358;-73
2021/04/21 12:34:52;;;;;;;;;;;;;;;18.16;43.49;101838.13;4962589;28;20020;-73
2021/04/21 12:37:22;;;;;;;;;;;;;;;18.42;44.55;101839.69;4984986;28;19953;-73
2021/04/21 12:39:48;;;;;;;;;;;;;;;18.69;42.76;101849.00;4981873;28;19979;-73
2021/04/21 12:42:19;;;;;;;;;;;;;;;18.54;42.17;101844.44;4988536;28;19984;-73
2021/04/21 12:44:46;;;;;;;;;;;;;;;18.91;42.73;101845.56;4988833;28;19929;-73
2021/04/21 12:47:13;;;;;;;;;;;;;;;18.70;42.12;101840.88;4984135;28;19968;-74
2021/04/21 12:49:41;;;;;;;;;;;;;;;18.53;42.09;101855.25;4987621;28;19984;-73
2021/04/21 12:52:11;;;;;;;;;;;;;;;18.42;42.46;101847.66;4980250;28;19943;-73
2021/04/21 12:54:40;;;;;;;;;;;;;;;18.33;42.52;101847.69;4990032;28;19960;-72
2021/04/21 12:57:06;;;;;;;;;;;;;;;18.80;42.53;101853.97;4985663;28;19929;-74